FW6629 Weather Reports


Display with metric or nautical units.
time (UTC)temp
F
wind
direction
speed
MPH
gust
MPH
rain 1hr
in
rain 24hr
in
rain mn
in
humidity
%
barometer
mb
20201028132125 69 45 0.0 0.0 0.21 0.43 0.43 99 1017.5
20201028131130 69 68 0.0 0.0 0.20 0.42 0.42 99 1017.5
20201028130123 69 45 0.0 0.0 0.19 0.41 0.41 99 1017.5
20201028125123 69 23 0.0 0.0 0.18 0.40 0.40 99 1017.5
20201028124128 69 23 0.0 0.0 0.16 0.38 0.38 99 1017.5
20201028123125 69 68 0.0 0.0 0.11 0.33 0.33 99 1017.5
20201028122122 69 23 0.0 0.0 0.00 0.22 0.22 99 1017.6
20201028121131 69 45 0.0 0.0 0.00 0.22 0.22 99 1017.7
20201028120129 69 23 0.0 0.0 0.01 0.22 0.22 99 1017.4
20201028115125 69 23 0.0 0.0 0.01 0.22 0.22 99 1017.4
20201028114127 69 23 0.0 0.0 0.01 0.22 0.22 99 1017.5
20201028113126 69 113 0.0 1.0 0.02 0.22 0.22 99 1017.5
20201028112125 69 64 1.0 2.0 0.02 0.22 0.22 99 1017.6
20201028111128 68 337 0.0 2.0 0.06 0.22 0.22 99 1017.6
20201028110206 68 90 0.0 0.0 0.09 0.21 0.21 99 1017.5
20201028105125 68 161 1.0 2.0 0.11 0.21 0.21 99 1017.5
20201028104128 68 270 0.0 2.0 0.13 0.21 0.21 99 1017.7
20201028103124 68 270 0.0 2.0 0.14 0.20 0.20 99 1017.3
20201028102124 68 166 1.0 2.0 0.14 0.20 0.20 99 1017.7
20201028101131 68 158 0.0 0.0 0.11 0.16 0.16 99 1017.6
20201028100128 68 203 0.0 0.0 0.07 0.12 0.12 99 1017.4
20201028095124 68 158 0.0 0.0 0.06 0.10 0.10 99 1017.4
20201028094125 68 203 0.0 0.0 0.05 0.08 0.08 99 1017.9
20201028093128 68 203 0.0 0.0 0.06 0.06 0.06 99 1018.0
20201028092124 68 203 0.0 0.0 0.06 0.06 0.06 99 1018.0
20201028091126 68 203 0.0 0.0 0.05 0.05 0.05 99 1018.1
20201028090125 68 203 0.0 0.0 0.05 0.05 0.05 99 1018.1
20201028085123 68 203 0.0 0.0 0.04 0.04 0.04 99 1018.1
20201028084137 68 203 0.0 0.0 0.03 0.03 0.03 99 1018.2
20201028083127 68 203 0.0 0.0 0.00 0.00 0.00 99 1018.3
20201028082129 69 203 0.0 0.0 0.00 0.00 0.00 99 1018.3
20201028081126 69 203 0.0 0.0 0.00 0.00 0.00 99 1018.5
20201028080124 69 203 0.0 0.0 0.00 0.00 0.00 99 1018.6
20201028075123 69 203 0.0 0.0 0.00 0.00 0.00 99 1018.6
20201028074135 68 203 0.0 0.0 0.00 0.00 0.00 99 1018.5
20201028073134 68 203 0.0 0.0 0.00 0.00 0.00 99 1018.8
20201028072124 68 203 0.0 0.0 0.00 0.00 0.00 99 1018.9
20201028071129 68 203 0.0 0.0 0.00 0.00 0.00 99 1018.9
20201028070131 68 203 0.0 0.0 0.00 0.00 0.00 99 1019.1
20201028065129 68 203 0.0 0.0 0.00 0.00 0.00 99 1019.1
20201028064124 68 203 0.0 0.0 0.00 0.00 0.00 99 1019.2
20201028063130 68 203 0.0 0.0 0.00 0.00 0.00 99 1019.1
20201028062129 68 203 0.0 0.0 0.00 0.00 0.00 99 1019.3
20201028061124 68 203 0.0 0.0 0.00 0.00 0.00 99 1019.2
20201028060125 68 203 0.0 0.0 0.00 0.00 0.00 99 1019.2
20201028055128 68 203 0.0 0.0 0.00 0.00 0.00 99 1019.2
20201028054126 68 113 0.0 1.0 0.00 0.00 0.00 99 1019.3
20201028053123 68 128 0.0 2.0 0.00 0.00 0.00 99 1019.6
20201028052138 68 158 0.0 1.0 0.00 0.00 0.00 99 1019.6
20201028051132 68 171 0.0 2.0 0.00 0.00 0.00 99 1019.8
20201028050142 68 158 1.0 2.0 0.00 0.00 0.00 99 1019.8
20201028045123 68 180 0.0 0.0 0.00 0.00 0.00 99 1019.8
20201028044123 68 180 0.0 0.0 0.00 0.00 0.00 99 1019.8
20201028043124 68 225 0.0 0.0 0.00 0.00 0.00 99 1019.9
20201028042125 68 225 0.0 0.0 0.00 0.00 0.00 99 1019.7
20201028041124 68 225 0.0 0.0 0.00 0.00 0.00 99 1020.0
20201028040125 68 225 0.0 0.0 0.00 0.00 0.00 99 1020.1
20201028035125 68 225 0.0 0.0 0.00 0.00 0.00 99 1020.1
20201028034124 68 225 0.0 0.0 0.00 0.00 0.00 99 1020.1
20201028033131 68 225 0.0 0.0 0.00 0.00 0.00 99 1020.2
20201028032124 68 225 0.0 0.0 0.00 0.00 0.00 99 1020.1
20201028031128 68 225 0.0 0.0 0.00 0.00 0.00 99 1020.2
20201028030131 68 180 0.0 0.0 0.00 0.00 0.00 99 1020.2
20201028025124 68 214 0.0 1.0 0.00 0.00 0.00 99 1020.2
20201028024129 67 180 0.0 0.0 0.00 0.00 0.00 99 1020.2
20201028023127 67 225 0.0 0.0 0.00 0.00 0.00 99 1020.0
20201028022123 67 225 0.0 0.0 0.00 0.00 0.00 99 1020.1
20201028021129 67 225 0.0 0.0 0.00 0.00 0.00 99 1019.8
20201028020124 67 225 0.0 0.0 0.00 0.00 0.00 99 1019.8
20201028015123 67 225 0.0 0.0 0.00 0.00 0.00 99 1019.8
20201028014126 67 225 0.0 0.0 0.00 0.00 0.00 99 1019.5
20201028013123 67 225 0.0 0.0 0.00 0.00 0.00 99 1019.7
20201028012131 68 225 0.0 0.0 0.00 0.00 0.00 99 1019.8
20201028011132 68 203 0.0 0.0 0.00 0.00 0.00 99 1019.6
20201028010123 68 203 0.0 0.0 0.00 0.00 0.00 99 1019.6
20201028005135 69 203 0.0 0.0 0.00 0.00 0.00 99 1019.6
20201028004123 69 203 0.0 0.0 0.00 0.00 0.00 99 1019.6
20201028003125 69 225 0.0 0.0 0.00 0.00 0.00 98 1019.4
20201028002126 70 225 0.0 0.0 0.00 0.00 0.00 98 1019.4
20201028001123 70 225 0.0 0.0 0.00 0.00 0.00 98 1019.6
20201028000144 71 225 0.0 0.0 0.00 0.00 0.00 98 1019.6
20201027235123 71 225 0.0 0.0 0.00 0.00 0.00 97 1019.6
20201027234125 71 225 0.0 0.0 0.00 0.00 0.00 97 1019.5
20201027233123 71 225 0.0 0.0 0.00 0.00 0.00 97 1019.6
20201027232123 71 225 0.0 0.0 0.00 0.00 0.00 96 1019.6
20201027231123 71 225 0.0 0.0 0.00 0.00 0.00 96 1019.6
20201027230131 72 203 0.0 0.0 0.00 0.00 0.00 95 1019.5
20201027225124 72 203 0.0 0.0 0.00 0.00 0.00 95 1019.5
20201027224146 72 203 0.0 0.0 0.00 0.00 0.00 94 1019.6
20201027223124 72 203 0.0 0.0 0.00 0.00 0.00 94 1019.7
20201027222130 73 203 0.0 0.0 0.00 0.00 0.00 92 1019.7
20201027221129 74 203 0.0 0.0 0.00 0.00 0.00 90 1019.7
20201027220123 74 203 0.0 0.0 0.00 0.00 0.00 89 1019.8
20201027215126 75 203 0.0 0.0 0.00 0.00 0.00 87 1019.8
20201027214136 75 180 0.0 0.0 0.00 0.00 0.00 86 1019.6
20201027213124 76 220 0.0 2.0 0.00 0.00 0.00 85 1019.7
20201027212123 76 225 0.0 2.0 0.00 0.00 0.00 85 1019.6
20201027211124 75 180 0.0 0.0 0.00 0.00 0.00 85 1019.7
20201027210125 75 262 1.0 2.0 0.00 0.00 0.00 85 1019.8
20201027205125 75 140 0.0 2.0 0.00 0.00 0.00 86 1019.8
20201027204129 75 164 1.0 2.0 0.00 0.00 0.00 86 1019.8
20201027203123 75 177 1.0 2.0 0.00 0.00 0.00 85 1019.8
20201027202123 75 173 1.0 2.0 0.00 0.00 0.00 86 1019.8
20201027201123 74 270 0.0 0.0 0.00 0.00 0.00 86 1019.8
20201027200124 74 270 0.0 0.0 0.00 0.00 0.00 88 1020.0
20201027195123 73 293 0.0 0.0 0.00 0.00 0.00 88 1020.0
20201027194123 73 270 0.0 0.0 0.00 0.00 0.00 88 1020.1
20201027193123 73 315 0.0 0.0 0.00 0.00 0.00 88 1020.1
20201027192122 73 338 0.0 0.0 0.00 0.00 0.00 87 1020.2
20201027191133 73 360 1.0 2.0 0.00 0.00 0.00 89 1020.4
20201027190129 73 360 0.0 0.0 0.00 0.00 0.00 88 1020.4
20201027185127 74 360 0.0 0.0 0.00 0.00 0.00 87 1020.4
20201027184124 74 337 0.0 2.0 0.00 0.00 0.00 84 1020.5
20201027183132 74 282 1.0 3.0 0.00 0.00 0.00 86 1020.7
20201027182122 74 328 1.0 2.0 0.00 0.00 0.00 85 1020.8
20201027181124 73 149 2.0 3.0 0.00 0.00 0.00 88 1020.7
20201027180210 72 278 1.0 3.0 0.00 0.00 0.00 88 1020.9
20201027175123 72 270 0.0 0.0 0.00 0.00 0.00 87 1020.9
20201027174124 74 270 0.0 0.0 0.00 0.00 0.00 85 1021.2
20201027173125 73 180 0.0 0.0 0.00 0.00 0.00 86 1021.6
20201027172124 72 203 0.0 0.0 0.00 0.00 0.00 88 1021.7
20201027171132 73 203 0.0 0.0 0.00 0.00 0.00 85 1021.9
20201027170139 72 270 0.0 0.0 0.00 0.00 0.00 88 1022.0
20201027165122 73 270 0.0 0.0 0.00 0.00 0.00 86 1022.0
20201027164126 72 270 0.0 0.0 0.00 0.00 0.00 88 1022.2
20201027163139 73 293 0.0 0.0 0.00 0.00 0.00 87 1022.3
20201027162128 72 248 0.0 0.0 0.00 0.00 0.00 88 1022.4
20201027161123 72 158 0.0 0.0 0.00 0.00 0.00 87 1022.5
20201027160124 71 270 0.0 0.0 0.00 0.00 0.00 87 1022.6
20201027155125 71 113 0.0 0.0 0.00 0.00 0.00 89 1022.6
20201027154126 70 225 0.0 0.0 0.00 0.00 0.00 90 1022.6
20201027153126 70 270 0.0 0.0 0.00 0.00 0.00 90 1022.6
20201027152125 69 45 0.0 0.0 0.00 0.00 0.00 92 1022.7
20201027151131 68 270 0.0 0.0 0.00 0.00 0.00 94 1022.9
20201027150123 68 225 0.0 0.0 0.00 0.00 0.00 94 1023.0
20201027145123 67 248 0.0 0.0 0.00 0.00 0.00 95 1023.0
20201027144126 66 180 0.0 0.0 0.00 0.00 0.00 96 1022.9
20201027143123 66 225 0.0 0.0 0.00 0.00 0.00 97 1022.8
20201027142126 65 225 0.0 0.0 0.00 0.00 0.00 98 1022.8
20201027141123 65 158 0.0 0.0 0.00 0.00 0.00 99 1022.7
20201027140127 64 293 0.0 0.0 0.00 0.00 0.00 99 1022.7
20201027135123 64 270 0.0 0.0 0.00 0.00 0.00 99 1022.7
20201027134123 64 270 0.0 0.0 0.00 0.00 0.00 99 1022.7
20201027133124 64 270 0.0 0.0 0.00 0.00 0.00 99 1022.7